createdAt,value
2023-04-18T00:01:33.465Z,18.48
2023-04-18T00:04:02.045Z,7.68
2023-04-18T00:06:30.019Z,5.97
2023-04-18T00:08:56.740Z,5.13
2023-04-18T00:11:23.500Z,10.88
2023-04-18T00:13:50.425Z,11.00
2023-04-18T00:16:17.137Z,12.00
2023-04-18T00:18:43.905Z,11.65
2023-04-18T00:21:10.601Z,11.57
2023-04-18T00:23:37.355Z,10.50
2023-04-18T00:26:04.526Z,8.27
2023-04-18T00:28:31.226Z,6.63
2023-04-18T00:30:57.966Z,8.20
2023-04-18T00:33:24.713Z,7.65
2023-04-18T00:35:51.499Z,5.55
2023-04-18T00:38:18.206Z,6.40
2023-04-18T00:40:44.882Z,6.75
2023-04-18T00:43:15.023Z,7.47
2023-04-18T00:45:41.895Z,4.80
2023-04-18T00:48:09.594Z,5.97
2023-04-18T00:50:37.661Z,7.00
2023-04-18T00:53:04.774Z,11.50
2023-04-18T00:55:31.749Z,6.75
2023-04-18T00:57:58.700Z,6.90
2023-04-18T01:00:25.889Z,6.97
2023-04-18T01:02:54.097Z,7.40
2023-04-18T01:05:21.961Z,7.82
2023-04-18T01:07:49.190Z,10.10
2023-04-18T01:10:16.055Z,11.13
2023-04-18T01:12:42.687Z,11.65
2023-04-18T01:15:10.767Z,12.55
2023-04-18T01:17:38.603Z,11.93
2023-04-18T01:20:06.434Z,12.95
2023-04-18T01:22:34.182Z,13.65
2023-04-18T01:25:01.013Z,9.50
2023-04-18T01:27:27.804Z,7.20
2023-04-18T01:29:54.573Z,6.82
2023-04-18T01:32:22.661Z,5.73
2023-04-18T01:34:49.487Z,7.60
2023-04-18T01:37:16.145Z,8.93
2023-04-18T01:39:42.816Z,11.02
2023-04-18T01:42:09.548Z,11.50
2023-04-18T01:44:36.248Z,11.30
2023-04-18T01:47:03.103Z,10.00
2023-04-18T01:49:29.832Z,9.73
2023-04-18T01:51:56.541Z,8.30
2023-04-18T01:54:23.270Z,11.38
2023-04-18T01:56:49.915Z,10.82
2023-04-18T01:59:16.736Z,21.17
2023-04-18T02:01:43.475Z,19.57
2023-04-18T02:04:10.365Z,13.27
2023-04-18T02:06:37.234Z,6.63
2023-04-18T02:09:03.963Z,12.15
2023-04-18T02:11:30.712Z,10.00
2023-04-18T02:13:59.696Z,9.32
2023-04-18T02:16:26.536Z,10.63
2023-04-18T02:18:53.654Z,9.03
2023-04-18T02:21:22.107Z,9.32
2023-04-18T02:23:48.949Z,11.68
2023-04-18T02:26:16.190Z,11.05
2023-04-18T02:28:43.085Z,9.88
2023-04-18T02:31:14.915Z,9.70
2023-04-18T02:33:43.531Z,10.17
2023-04-18T02:36:12.068Z,9.53
2023-04-18T02:38:38.958Z,10.17
2023-04-18T02:41:05.731Z,9.50
2023-04-18T02:43:33.065Z,10.03
2023-04-18T02:45:59.791Z,9.85
2023-04-18T02:48:26.641Z,9.70
2023-04-18T02:50:53.411Z,8.55
2023-04-18T02:53:23.877Z,6.95
2023-04-18T02:55:50.690Z,9.60
2023-04-18T02:58:17.308Z,9.17
2023-04-18T03:00:44.045Z,11.97
2023-04-18T03:03:10.925Z,12.63
2023-04-18T03:05:39.552Z,11.03
2023-04-18T03:08:06.433Z,17.43
2023-04-18T03:10:33.128Z,96.63
2023-04-18T03:12:59.906Z,25.10
2023-04-18T03:15:26.840Z,23.10
2023-04-18T03:17:53.709Z,20.23
2023-04-18T03:20:20.746Z,16.33
2023-04-18T03:22:47.473Z,18.27
2023-04-18T03:25:14.311Z,17.77
2023-04-18T03:27:41.100Z,19.50
2023-04-18T03:30:08.514Z,14.93
2023-04-18T03:32:36.528Z,13.87
2023-04-18T03:35:03.443Z,15.33
2023-04-18T03:37:30.174Z,17.53
2023-04-18T03:39:57.342Z,15.10
2023-04-18T03:42:24.264Z,15.20
2023-04-18T03:44:50.949Z,16.53
2023-04-18T03:47:17.692Z,19.13
2023-04-18T03:49:44.365Z,19.87
2023-04-18T03:52:11.075Z,21.90
2023-04-18T03:54:37.772Z,21.73
2023-04-18T03:57:06.357Z,23.43
2023-04-18T03:59:33.074Z,18.67
2023-04-18T04:01:59.834Z,19.70
2023-04-18T04:04:27.324Z,17.60
2023-04-18T04:06:54.070Z,17.23
2023-04-18T04:09:20.862Z,16.90
2023-04-18T04:11:47.685Z,15.17
2023-04-18T04:14:14.532Z,14.70
2023-04-18T04:16:41.718Z,17.30
2023-04-18T04:19:08.519Z,16.30
2023-04-18T04:21:35.929Z,19.88
2023-04-18T04:24:03.111Z,23.07
2023-04-18T04:26:30.801Z,23.67
2023-04-18T04:28:57.771Z,21.80
2023-04-18T04:31:24.949Z,22.97
2023-04-18T04:33:51.658Z,25.03
2023-04-18T04:36:19.211Z,28.70
2023-04-18T04:38:46.165Z,32.47
2023-04-18T04:41:12.980Z,34.75
2023-04-18T04:43:41.371Z,38.60
2023-04-18T04:46:08.954Z,50.60
2023-04-18T04:48:35.701Z,71.03
2023-04-18T04:51:02.480Z,62.03
2023-04-18T04:53:32.675Z,47.67
2023-04-18T04:55:59.491Z,28.55
2023-04-18T04:58:26.724Z,40.58
2023-04-18T05:00:53.898Z,45.15
2023-04-18T05:03:21.197Z,40.08
2023-04-18T05:05:48.551Z,43.47
2023-04-18T05:08:15.520Z,41.35
2023-04-18T05:10:43.347Z,27.35
2023-04-18T05:13:10.159Z,26.33
2023-04-18T05:15:36.937Z,27.70
2023-04-18T05:18:03.960Z,30.63
2023-04-18T05:20:30.757Z,29.75
2023-04-18T05:22:57.508Z,55.92
2023-04-18T05:25:24.467Z,39.08
2023-04-18T05:27:51.184Z,31.77
2023-04-18T05:30:18.002Z,27.88
2023-04-18T05:32:44.757Z,25.15
2023-04-18T05:35:12.075Z,26.60
2023-04-18T05:37:39.664Z,28.02
2023-04-18T05:40:09.051Z,32.28
2023-04-18T05:42:35.831Z,31.52
2023-04-18T05:45:02.820Z,33.05
2023-04-18T05:47:30.530Z,31.77
2023-04-18T05:49:57.388Z,31.00
2023-04-18T05:52:26.130Z,30.20
2023-04-18T05:54:53.012Z,21.95
2023-04-18T05:57:19.754Z,27.83
2023-04-18T05:59:46.578Z,23.30
2023-04-18T06:02:13.814Z,23.25
2023-04-18T06:04:45.185Z,22.90
2023-04-18T06:07:12.353Z,21.55
2023-04-18T06:09:39.068Z,23.75
2023-04-18T06:12:06.076Z,21.80
2023-04-18T06:14:32.840Z,24.10
2023-04-18T06:16:59.716Z,23.23
2023-04-18T06:19:26.406Z,25.25
2023-04-18T06:21:53.384Z,24.77
2023-04-18T06:24:21.386Z,20.77
2023-04-18T06:26:48.082Z,21.13
2023-04-18T06:29:15.334Z,23.92
2023-04-18T06:31:42.320Z,22.67
2023-04-18T06:34:09.088Z,23.38
2023-04-18T06:36:36.363Z,20.98
2023-04-18T06:39:03.457Z,20.30
2023-04-18T06:41:30.106Z,20.30
2023-04-18T06:44:02.619Z,18.75
2023-04-18T06:46:30.939Z,21.20
2023-04-18T06:48:57.721Z,21.45
2023-04-18T06:51:24.534Z,20.25
2023-04-18T06:53:53.006Z,21.02
2023-04-18T06:56:23.154Z,19.90
2023-04-18T06:58:50.219Z,19.75
2023-04-18T07:01:17.001Z,19.52
2023-04-18T07:03:43.959Z,20.35
2023-04-18T07:06:11.087Z,18.48
2023-04-18T07:08:38.272Z,13.15
2023-04-18T07:11:06.110Z,15.50
2023-04-18T07:13:34.214Z,14.80
2023-04-18T07:16:01.599Z,17.92
2023-04-18T07:18:37.649Z,22.60
2023-04-18T07:21:07.853Z,20.90
2023-04-18T07:23:35.296Z,22.83
2023-04-18T07:26:03.109Z,22.33
2023-04-18T07:28:31.866Z,21.98
2023-04-18T07:30:59.356Z,22.33
2023-04-18T07:33:26.107Z,23.70
2023-04-18T07:35:53.232Z,27.30
2023-04-18T07:38:20.434Z,23.63
2023-04-18T07:40:47.304Z,21.30
2023-04-18T07:43:15.194Z,22.20
2023-04-18T07:45:43.458Z,24.92
2023-04-18T07:48:11.301Z,23.23
2023-04-18T07:50:38.311Z,24.15
2023-04-18T07:53:05.238Z,21.42
2023-04-18T07:55:32.001Z,20.10
2023-04-18T07:57:58.738Z,19.27
2023-04-18T08:00:25.645Z,20.98
2023-04-18T08:02:52.477Z,20.45
2023-04-18T08:05:20.298Z,20.17
2023-04-18T08:07:47.182Z,19.17
2023-04-18T08:10:13.885Z,20.42
2023-04-18T08:12:40.960Z,20.60
2023-04-18T08:15:08.590Z,19.75
2023-04-18T08:17:35.350Z,24.08
2023-04-18T08:20:05.118Z,24.77
2023-04-18T08:22:32.017Z,13.18
2023-04-18T08:25:04.868Z,8.57
2023-04-18T08:27:32.742Z,4.97
2023-04-18T08:30:00.353Z,4.32
2023-04-18T08:32:27.217Z,3.75
2023-04-18T08:34:53.942Z,3.70
2023-04-18T08:37:20.602Z,4.50
2023-04-18T08:39:47.287Z,4.85
2023-04-18T08:42:19.208Z,4.35
2023-04-18T08:44:47.282Z,5.25
2023-04-18T08:47:14.881Z,4.75
2023-04-18T08:49:46.761Z,7.22
2023-04-18T08:52:14.925Z,8.95
2023-04-18T08:54:43.020Z,9.15
2023-04-18T08:57:12.649Z,6.25
2023-04-18T08:59:40.140Z,8.82
2023-04-18T09:02:09.008Z,8.05
2023-04-18T09:04:49.267Z,5.63
2023-04-18T09:07:17.397Z,7.40
2023-04-18T09:09:45.536Z,12.73
2023-04-18T09:12:14.819Z,8.05
2023-04-18T09:14:50.233Z,4.55
2023-04-18T09:17:38.385Z,4.68
2023-04-18T09:20:06.485Z,4.65
2023-04-18T09:22:53.082Z,8.82
2023-04-18T09:25:34.984Z,7.03
2023-04-18T09:28:02.933Z,6.75
2023-04-18T09:30:32.099Z,4.28
2023-04-18T09:33:00.527Z,4.38
2023-04-18T09:35:28.374Z,8.95
2023-04-18T09:37:56.055Z,11.05
2023-04-18T09:40:24.122Z,11.48
2023-04-18T09:42:55.699Z,7.63
2023-04-18T09:45:24.122Z,6.20
2023-04-18T09:47:52.493Z,14.88
2023-04-18T09:50:20.984Z,8.85
2023-04-18T09:52:48.851Z,6.78
2023-04-18T09:55:18.720Z,5.10
2023-04-18T09:57:50.490Z,3.35
2023-04-18T10:00:24.374Z,11.77
2023-04-18T10:03:08.314Z,7.90
2023-04-18T10:05:39.956Z,6.68
2023-04-18T10:08:07.182Z,10.23
2023-04-18T10:10:34.141Z,14.45
2023-04-18T10:13:02.657Z,27.02
2023-04-18T10:15:30.973Z,11.43
2023-04-18T10:18:04.375Z,10.18
2023-04-18T10:20:33.635Z,12.10
2023-04-18T10:23:36.113Z,11.43
2023-04-18T10:26:09.098Z,8.95
2023-04-18T10:28:57.241Z,8.05
2023-04-18T10:31:28.777Z,8.75
2023-04-18T10:36:28.660Z,7.57
2023-04-18T10:39:21.312Z,10.07
2023-04-18T10:41:51.735Z,7.57
2023-04-18T10:44:25.015Z,8.13
2023-04-18T10:46:51.843Z,10.55
2023-04-18T10:49:26.299Z,26.98
2023-04-18T10:51:54.133Z,12.82
2023-04-18T10:54:32.199Z,14.18
2023-04-18T10:57:04.701Z,16.88
2023-04-18T10:59:33.397Z,12.05
2023-04-18T11:02:23.274Z,17.00
2023-04-18T11:04:51.851Z,24.42
2023-04-18T11:07:18.930Z,12.80
2023-04-18T11:09:55.311Z,21.00
2023-04-18T11:12:22.948Z,17.98
2023-04-18T11:14:54.495Z,15.40
2023-04-18T11:17:26.172Z,9.65
2023-04-18T11:20:17.096Z,14.73
2023-04-18T11:22:52.769Z,9.38
2023-04-18T11:25:23.712Z,8.35
2023-04-18T11:27:55.650Z,15.75
2023-04-18T11:30:22.514Z,13.77
2023-04-18T11:32:49.691Z,11.80
2023-04-18T11:35:16.546Z,11.68
2023-04-18T11:37:46.004Z,8.40
2023-04-18T11:40:14.389Z,13.50
2023-04-18T11:42:41.504Z,23.33
2023-04-18T11:45:11.685Z,13.35
2023-04-18T11:47:39.205Z,6.22
2023-04-18T11:50:07.821Z,9.40
2023-04-18T11:52:36.069Z,6.18
2023-04-18T11:55:15.106Z,6.13
2023-04-18T11:57:42.079Z,9.98
2023-04-18T12:00:12.317Z,3.75
2023-04-18T12:02:45.489Z,2.90
2023-04-18T12:05:15.067Z,3.50
2023-04-18T12:07:44.407Z,7.05
2023-04-18T12:10:20.542Z,7.90
2023-04-18T12:12:51.018Z,9.75
2023-04-18T12:15:18.680Z,7.53
2023-04-18T12:17:48.617Z,8.27
2023-04-18T12:20:16.119Z,7.47
2023-04-18T12:22:49.667Z,5.32
2023-04-18T12:25:27.384Z,6.60
2023-04-18T12:28:03.741Z,9.65
2023-04-18T12:30:33.361Z,10.70
2023-04-18T12:33:02.909Z,8.77
2023-04-18T12:35:31.201Z,10.63
2023-04-18T12:38:02.844Z,19.67
2023-04-18T12:40:30.179Z,18.15
2023-04-18T12:42:56.985Z,14.88
2023-04-18T12:45:24.465Z,13.30
2023-04-18T12:47:52.594Z,10.65
2023-04-18T12:50:21.854Z,11.27
2023-04-18T12:52:49.065Z,8.60
2023-04-18T12:55:15.873Z,7.60
2023-04-18T12:57:43.292Z,16.88
2023-04-18T13:00:11.500Z,13.07
2023-04-18T13:02:39.486Z,13.98
2023-04-18T13:05:11.149Z,25.55
2023-04-18T13:07:40.438Z,11.45
2023-04-18T13:10:12.039Z,11.25
2023-04-18T13:12:41.806Z,12.32
2023-04-18T13:15:10.096Z,8.80
2023-04-18T13:17:39.469Z,11.63
2023-04-18T13:20:10.703Z,8.95
2023-04-18T13:22:38.722Z,10.65
2023-04-18T13:25:07.282Z,14.00
2023-04-18T13:27:34.389Z,8.20
2023-04-18T13:30:02.592Z,9.23
2023-04-18T13:32:29.385Z,10.63
2023-04-18T13:34:56.561Z,12.05
2023-04-18T13:37:23.753Z,12.60
2023-04-18T13:39:50.669Z,15.90
2023-04-18T13:42:19.333Z,6.15
2023-04-18T13:44:47.150Z,7.63
2023-04-18T13:47:14.111Z,6.90
2023-04-18T13:49:41.169Z,4.35
2023-04-18T13:52:07.976Z,8.98
2023-04-18T13:54:37.045Z,4.90
2023-04-18T13:57:04.308Z,6.30
2023-04-18T13:59:31.913Z,12.02
2023-04-18T14:01:59.328Z,10.85
2023-04-18T14:04:27.040Z,13.45
2023-04-18T14:06:53.935Z,15.63
2023-04-18T14:09:20.884Z,15.18
2023-04-18T14:11:47.730Z,8.93
2023-04-18T14:14:14.983Z,1.08
2023-04-18T14:16:41.837Z,13.52
2023-04-18T14:19:09.101Z,13.48
2023-04-18T14:21:36.114Z,19.77
2023-04-18T14:24:03.882Z,24.95
2023-04-18T14:26:30.948Z,57.80
2023-04-18T14:28:57.653Z,41.70
2023-04-18T14:31:24.463Z,43.17
2023-04-18T14:33:51.219Z,56.35
2023-04-18T14:36:18.081Z,41.63
2023-04-18T14:38:49.143Z,15.00
2023-04-18T14:41:16.519Z,8.95
2023-04-18T14:43:43.265Z,8.77
2023-04-18T14:46:14.331Z,8.10
2023-04-18T14:48:41.081Z,11.98
2023-04-18T14:51:07.877Z,19.88
2023-04-18T14:53:35.022Z,26.73
2023-04-18T14:56:01.716Z,13.05
2023-04-18T14:58:28.350Z,17.88
2023-04-18T15:00:55.150Z,9.13
2023-04-18T15:03:22.002Z,7.53
2023-04-18T15:05:49.262Z,8.88
2023-04-18T15:08:16.369Z,13.13
2023-04-18T15:10:43.144Z,12.32
2023-04-18T15:13:11.169Z,13.77
2023-04-18T15:15:39.749Z,12.23
2023-04-18T15:18:08.553Z,14.25
2023-04-18T15:20:37.220Z,14.90
2023-04-18T15:23:03.993Z,14.90
2023-04-18T15:25:31.042Z,16.05
2023-04-18T15:27:58.547Z,18.25
2023-04-18T15:30:25.640Z,19.63
2023-04-18T15:32:54.044Z,17.73
2023-04-18T15:35:21.145Z,17.27
2023-04-18T15:37:49.047Z,18.92
2023-04-18T15:40:18.778Z,23.50
2023-04-18T15:42:46.123Z,17.08
2023-04-18T15:45:13.091Z,18.20
2023-04-18T15:47:40.790Z,16.08
2023-04-18T15:50:08.775Z,23.42
2023-04-18T15:52:36.373Z,18.00
2023-04-18T15:55:03.480Z,21.63
2023-04-18T15:57:30.279Z,25.52
2023-04-18T15:59:59.078Z,26.23
2023-04-18T16:02:26.574Z,20.65
2023-04-18T16:04:53.416Z,24.98
2023-04-18T16:07:20.222Z,21.20
2023-04-18T16:09:46.926Z,25.58
2023-04-18T16:12:13.914Z,26.20
2023-04-18T16:14:40.769Z,26.88
2023-04-18T16:17:07.434Z,26.17
2023-04-18T16:19:38.251Z,27.85
2023-04-18T16:22:07.418Z,29.23
2023-04-18T16:24:34.186Z,28.92
2023-04-18T16:27:01.066Z,28.58
2023-04-18T16:29:27.887Z,34.30
2023-04-18T16:31:55.219Z,34.63
2023-04-18T16:34:22.128Z,38.70
2023-04-18T16:36:51.045Z,35.38
2023-04-18T16:39:19.312Z,40.13
2023-04-18T16:41:46.081Z,40.50
2023-04-18T16:44:13.257Z,41.22
2023-04-18T16:46:40.228Z,46.20
2023-04-18T16:49:06.944Z,58.10
2023-04-18T16:51:36.424Z,54.45
2023-04-18T16:54:03.865Z,51.50
2023-04-18T16:56:30.883Z,50.33
2023-04-18T16:58:58.340Z,45.25
2023-04-18T17:01:25.049Z,42.97
2023-04-18T17:03:52.061Z,39.85
2023-04-18T17:06:19.704Z,38.47
2023-04-18T17:08:46.505Z,47.08
2023-04-18T17:11:13.230Z,48.35
2023-04-18T17:13:42.563Z,45.97
2023-04-18T17:16:09.270Z,55.88
2023-04-18T17:18:35.981Z,46.35
2023-04-18T17:21:03.340Z,32.65
2023-04-18T17:23:32.216Z,30.50
2023-04-18T17:25:59.595Z,28.60
2023-04-18T17:28:26.342Z,24.58
2023-04-18T17:30:53.074Z,23.40
2023-04-18T17:33:19.806Z,46.50
2023-04-18T17:35:47.187Z,48.97
2023-04-18T17:38:13.914Z,48.05
2023-04-18T17:40:40.745Z,40.17
2023-04-18T17:43:07.607Z,37.80
2023-04-18T17:45:34.329Z,41.72
2023-04-18T17:48:03.099Z,41.47
2023-04-18T17:50:30.162Z,34.33
2023-04-18T17:52:57.549Z,29.73
2023-04-18T17:55:26.200Z,37.90
2023-04-18T17:57:53.075Z,35.17
2023-04-18T18:00:19.881Z,43.60
2023-04-18T18:02:46.739Z,40.67
2023-04-18T18:05:13.760Z,41.97
2023-04-18T18:07:43.456Z,36.85
2023-04-18T18:10:11.236Z,39.67
2023-04-18T18:12:38.306Z,71.32
2023-04-18T18:15:05.761Z,51.38
2023-04-18T18:17:32.555Z,38.85
2023-04-18T18:19:59.334Z,35.83
2023-04-18T18:22:26.399Z,30.55
2023-04-18T18:24:53.248Z,47.42
2023-04-18T18:27:22.977Z,41.00
2023-04-18T18:29:50.661Z,42.78
2023-04-18T18:32:17.437Z,38.92
2023-04-18T18:34:44.288Z,38.05
2023-04-18T18:37:11.072Z,36.78
2023-04-18T18:39:37.790Z,34.30
2023-04-18T18:42:04.762Z,32.78
2023-04-18T18:44:32.468Z,34.38
2023-04-18T18:46:59.859Z,35.70
2023-04-18T18:49:27.011Z,25.08
2023-04-18T18:51:53.832Z,19.15
2023-04-18T18:54:20.546Z,24.88
2023-04-18T18:56:47.270Z,24.50
2023-04-18T18:59:15.758Z,18.17
2023-04-18T19:01:42.797Z,12.38
2023-04-18T19:04:10.147Z,12.80
2023-04-18T19:06:37.120Z,13.10
2023-04-18T19:09:05.318Z,16.20
2023-04-18T19:11:32.138Z,17.63
2023-04-18T19:13:58.872Z,19.05
2023-04-18T19:16:25.802Z,19.45
2023-04-18T19:18:52.675Z,18.23
2023-04-18T19:21:20.348Z,26.60
2023-04-18T19:23:47.064Z,21.05
2023-04-18T19:26:13.967Z,27.77
2023-04-18T19:28:41.440Z,13.90
2023-04-18T19:31:09.692Z,21.27
2023-04-18T19:33:36.554Z,21.30
2023-04-18T19:36:03.506Z,17.15
2023-04-18T19:38:30.297Z,15.88
2023-04-18T19:40:57.313Z,19.65
2023-04-18T19:43:23.955Z,19.48
2023-04-18T19:45:52.062Z,14.57
2023-04-18T19:48:19.894Z,14.02
2023-04-18T19:50:46.659Z,21.15
2023-04-18T19:53:13.336Z,37.50
2023-04-18T19:55:40.019Z,39.72
2023-04-18T19:58:06.899Z,25.80
2023-04-18T20:00:34.274Z,25.50
2023-04-18T20:03:01.254Z,47.53
2023-04-18T20:05:28.131Z,54.85
2023-04-18T20:07:54.764Z,55.75
2023-04-18T20:10:22.401Z,54.65
2023-04-18T20:12:50.143Z,51.80
2023-04-18T20:15:17.230Z,38.97
2023-04-18T20:17:44.004Z,32.95
2023-04-18T20:20:11.482Z,31.35
2023-04-18T20:22:40.390Z,28.75
2023-04-18T20:25:07.722Z,23.65
2023-04-18T20:27:34.441Z,25.10
2023-04-18T20:30:01.182Z,25.73
2023-04-18T20:32:28.141Z,25.42
2023-04-18T20:34:54.837Z,33.38
2023-04-18T20:37:21.642Z,34.72
2023-04-18T20:39:48.420Z,33.97
2023-04-18T20:42:15.497Z,24.80
2023-04-18T20:44:46.908Z,21.63
2023-04-18T20:47:15.793Z,19.80
2023-04-18T20:49:42.722Z,16.45
2023-04-18T20:52:14.549Z,14.23
2023-04-18T20:54:44.614Z,11.60
2023-04-18T20:57:11.366Z,11.30
2023-04-18T20:59:38.150Z,13.07
2023-04-18T21:02:07.006Z,15.50
2023-04-18T21:04:34.070Z,16.63
2023-04-18T21:07:01.032Z,17.23
2023-04-18T21:09:27.785Z,11.65
2023-04-18T21:11:58.491Z,12.48
2023-04-18T21:14:25.181Z,20.20
2023-04-18T21:16:51.862Z,22.73
2023-04-18T21:19:18.585Z,13.93
2023-04-18T21:21:45.306Z,14.40
2023-04-18T21:24:12.098Z,13.65
2023-04-18T21:26:38.897Z,15.38
2023-04-18T21:29:05.875Z,13.60
2023-04-18T21:31:34.086Z,14.88
2023-04-18T21:34:04.270Z,15.25
2023-04-18T21:36:31.933Z,13.63
2023-04-18T21:39:01.265Z,15.07
2023-04-18T21:41:28.955Z,21.92
2023-04-18T21:43:55.797Z,17.73
2023-04-18T21:46:22.595Z,15.05
2023-04-18T21:48:49.497Z,14.20
2023-04-18T21:51:17.122Z,13.00
2023-04-18T21:53:44.053Z,10.98
2023-04-18T21:56:11.140Z,10.85
2023-04-18T21:58:37.966Z,10.63
2023-04-18T22:01:04.723Z,12.48
2023-04-18T22:03:33.595Z,14.05
2023-04-18T22:06:01.549Z,13.90
2023-04-18T22:08:29.567Z,13.50
2023-04-18T22:10:59.052Z,9.95
2023-04-18T22:13:30.362Z,15.20
2023-04-18T22:15:58.449Z,15.25
2023-04-18T22:18:25.439Z,15.52
2023-04-18T22:20:53.690Z,21.60
2023-04-18T22:23:20.719Z,17.88
2023-04-18T22:25:47.859Z,19.42
2023-04-18T22:28:14.627Z,16.08
2023-04-18T22:30:41.539Z,16.63
2023-04-18T22:33:08.314Z,16.38
2023-04-18T22:35:35.081Z,13.68
2023-04-18T22:38:01.963Z,14.88
2023-04-18T22:40:28.820Z,14.35
2023-04-18T22:42:56.147Z,14.63
2023-04-18T22:45:22.868Z,13.68
2023-04-18T22:47:49.586Z,13.75
2023-04-18T22:50:16.358Z,9.27
2023-04-18T22:52:43.116Z,8.57
2023-04-18T22:55:10.036Z,9.98
2023-04-18T22:57:38.628Z,11.23
2023-04-18T23:00:06.657Z,8.45
2023-04-18T23:02:33.503Z,7.07
2023-04-18T23:05:02.462Z,5.93
2023-04-18T23:07:29.219Z,6.18
2023-04-18T23:09:56.112Z,8.02
2023-04-18T23:12:23.031Z,33.35
2023-04-18T23:14:49.788Z,13.48
2023-04-18T23:17:23.116Z,9.55
2023-04-18T23:19:49.757Z,13.27
2023-04-18T23:22:16.500Z,13.00
2023-04-18T23:24:43.219Z,17.98
2023-04-18T23:27:10.274Z,16.42
2023-04-18T23:29:40.729Z,16.80
2023-04-18T23:32:08.239Z,12.95
2023-04-18T23:34:34.933Z,14.00
2023-04-18T23:37:01.677Z,15.27
2023-04-18T23:39:28.565Z,14.70
2023-04-18T23:41:55.317Z,17.90
2023-04-18T23:44:22.367Z,16.98
2023-04-18T23:46:49.373Z,11.07
2023-04-18T23:49:16.335Z,13.30
2023-04-18T23:51:42.975Z,13.20
2023-04-18T23:54:09.802Z,15.35
2023-04-18T23:56:36.536Z,14.85
2023-04-18T23:59:03.221Z,14.23
